Latest Weather Observations for Friendly Beaches

IDT60801

Issued at 1:05 pm EDT Saturday 29 November 2014 (issued every 30 minutes, with the page automatically refreshed every 10 minutes)

About weather observations | Map of weather stations | Latest weather observations for TAS | Other Formats
Station Details ID: 092114 Name: FRIENDLY BEACHES Lat: -42.00 Lon: 148.28 Height: 55.0 m
Data from the previous 72 hours. | See also: Recent months at Friendly Beaches
Date/Time
EDT
Temp
°C
App
Temp
°C
Dew
Point
Rel
Hum
%
Delta-T
°C
Wind Press
QNH
hPa
Press
MSL
hPa
Rain
since 9 am
mm
Dir
 
Spd
km/h
Gust
km/h
Spd
kts
Gust
kts
29/01:00pm 14.0 10.3 10.0 77 2.1 SE 20 30 11 16 1019.3 1019.3 0.0
29/12:30pm 14.4 10.8 10.6 78 2.0 SSE 20 28 11 15 1019.2 1019.2 0.0
29/12:00pm 14.7 11.7 10.5 76 2.2 SSE 17 22 9 12 1019.4 1019.4 0.0
29/11:30am 16.2 12.7 10.9 71 2.8 SE 20 26 11 14 1019.5 1019.5 0.0
29/11:00am 16.8 14.3 11.1 69 3.1 SE 15 19 8 10 1019.7 1019.7 0.0
29/10:30am 15.4 13.1 10.4 72 2.6 SE 13 17 7 9 1019.8 1019.8 0.0
29/10:00am 15.3 13.4 10.5 73 2.5 SSE 11 17 6 9 1020.1 1020.0 0.0
29/09:30am 15.2 13.3 10.4 73 2.5 SSE 11 17 6 9 1020.0 1019.9 0.0
29/09:00am 15.4 13.5 10.6 73 2.5 SE 11 17 6 9 1020.0 1019.9 0.0
29/08:30am 14.9 13.3 10.1 73 2.5 SE 9 13 5 7 1020.1 1020.0 0.0
29/08:00am 14.4 13.6 9.6 73 2.5 SE 4 7 2 4 1019.8 1019.8 0.0
29/07:30am 14.2 13.4 9.6 74 2.4 E 4 6 2 3 1019.6 1019.6 0.0
29/07:00am 13.5 13.4 9.6 77 2.0 CALM 0 2 0 1 1019.4 1019.4 0.0
29/06:30am 12.9 12.8 9.4 79 1.8 CALM 0 0 0 0 1019.5 1019.5 0.0
29/06:00am 12.7 12.5 9.2 79 1.8 CALM 0 0 0 0 1019.3 1019.3 0.0
29/05:30am 12.6 12.4 8.9 78 1.9 CALM 0 0 0 0 1019.3 1019.3 0.0
29/05:00am 12.7 12.1 9.0 78 1.9 ENE 2 6 1 3 1019.1 1019.1 0.0
29/04:30am 12.8 11.8 8.9 77 2.0 ESE 4 6 2 3 1019.3 1019.3 0.0
29/04:00am 12.8 11.8 8.9 77 2.0 E 4 9 2 5 1019.4 1019.4 0.0
29/03:30am 12.8 11.4 8.7 76 2.1 ESE 6 9 3 5 1019.4 1019.4 0.0
29/03:00am 12.9 11.5 8.8 76 2.1 ESE 6 9 3 5 1019.7 1019.7 0.0
29/02:30am 12.9 11.4 9.0 77 2.0 E 7 9 4 5 1019.6 1019.6 0.0
29/02:00am 12.9 11.4 9.2 78 1.9 ESE 7 9 4 5 1019.7 1019.7 0.0
29/01:30am 12.9 10.7 9.2 78 1.9 ESE 11 13 6 7 1020.2 1020.1 0.0
29/01:00am 12.9 11.7 9.4 79 1.8 SE 6 7 3 4 1020.5 1020.4 0.0
29/12:30am 12.9 12.0 9.4 79 1.8 E 4 7 2 4 1020.7 1020.6 0.0
29/12:00am 12.8 11.5 9.3 79 1.8 E 6 7 3 4 1020.9 1020.8 0.0
 
Date/Time
EDT
Temp
°C
App
Temp
°C
Dew
Point
Rel
Hum
%
Delta-T
°C
Wind Press
QNH
hPa
Press
MSL
hPa
Rain
since 9 am
mm
Dir
 
Spd
km/h
Gust
km/h
Spd
kts
Gust
kts
28/11:30pm 12.7 11.4 9.3 80 1.7 E 6 7 3 4 1021.0 1020.9 0.0
28/11:00pm 12.4 11.6 9.6 83 1.4 ENE 4 6 2 3 1021.2 1021.1 0.0
28/10:30pm 11.7 10.8 9.4 86 1.2 NNE 4 6 2 3 1021.6 1021.5 0.0
28/10:00pm 11.4 10.4 9.0 85 1.2 E 4 6 2 3 1021.7 1021.6 0.0
28/09:30pm 11.1 10.0 8.5 84 1.3 NE 4 6 2 3 1021.6 1021.5 0.0
28/09:00pm 11.7 10.6 8.4 80 1.6 NE 4 7 2 4 1021.5 1021.4 0.0
28/08:30pm 12.2 10.7 8.3 77 1.9 ENE 6 11 3 6 1021.4 1021.3 0.0
28/08:00pm 12.8 11.1 8.5 75 2.1 E 7 11 4 6 1021.5 1021.4 0.0
28/07:30pm 13.2 11.2 8.5 73 2.4 E 9 13 5 7 1021.3 1021.2 0.0
28/07:00pm 14.2 12.6 8.8 70 2.7 E 7 13 4 7 1021.3 1021.2 0.0
28/06:30pm 14.8 12.5 9.0 68 3.0 E 11 15 6 8 1021.2 1021.1 0.0
28/06:00pm 15.3 13.4 9.0 66 3.2 E 9 15 5 8 1021.0 1020.9 0.0
28/05:30pm 16.3 14.0 9.0 62 3.8 E 11 17 6 9 1021.2 1021.1 0.0
28/05:00pm 16.8 14.3 8.2 57 4.4 E 11 17 6 9 1021.1 1021.0 0.0
28/04:30pm 17.1 14.4 8.8 58 4.3 E 13 19 7 10 1021.2 1021.1 0.0
28/04:00pm 18.4 15.3 8.9 54 4.9 ESE 15 19 8 10 1021.6 1021.5 0.0
28/03:30pm 17.4 13.9 8.8 57 4.5 E 17 20 9 11 1021.6 1021.5 0.0
28/03:00pm 18.3 15.0 9.4 56 4.7 E 17 20 9 11 1021.6 1021.5 0.0
28/02:30pm 18.4 15.4 9.2 55 4.8 E 15 20 8 11 1021.9 1021.8 0.0
28/02:00pm 18.3 15.3 9.4 56 4.7 E 15 20 8 11 1021.7 1021.6 0.0
28/01:30pm 19.0 16.7 10.3 57 4.7 E 13 19 7 10 1022.0 1021.9 0.0
28/01:00pm 17.8 14.3 8.6 55 4.7 E 17 22 9 12 1022.2 1022.1 0.0
28/12:30pm 17.6 14.1 8.7 56 4.6 ESE 17 20 9 11 1022.5 1022.4 0.0
28/12:00pm 16.7 13.2 8.9 60 4.0 ESE 17 20 9 11 1022.6 1022.5 0.0
28/11:30am 16.4 12.9 8.6 60 4.0 SE 17 20 9 11 1022.7 1022.6 0.0
28/11:00am 16.0 12.9 8.7 62 3.7 SE 15 20 8 11 1022.7 1022.6 0.0
28/10:30am 15.5 12.0 8.7 64 3.5 ESE 17 20 9 11 1022.8 1022.7 0.0
28/10:00am 16.3 13.2 8.8 61 3.8 ESE 15 19 8 10 1022.8 1022.7 0.0
28/09:30am 15.1 12.7 8.8 66 3.2 ESE 11 15 6 8 1023.0 1022.9 0.0
28/09:00am 15.5 13.3 9.2 66 3.2 ESE 11 15 6 8 1023.2 1023.1 0.0
28/08:30am 14.2 12.7 9.2 72 2.6 E 7 11 4 6 1023.3 1023.2 0.0
28/08:00am 12.9 11.5 9.0 77 2.0 E 6 9 3 5 1023.3 1023.2 0.0
28/07:30am 12.4 10.8 8.9 79 1.8 ESE 7 11 4 6 1023.4 1023.3 0.0
28/07:00am 12.0 10.3 8.3 78 1.8 E 7 9 4 5 1023.2 1023.1 0.0
28/06:30am 11.8 10.2 8.1 78 1.8 SE 6 11 3 6 1023.1 1023.0 0.0
28/06:00am 11.7 9.9 8.0 78 1.8 SE 7 9 4 5 1023.0 1022.9 0.0
28/05:30am 11.7 10.8 7.8 77 1.9 E 2 4 1 2 1023.0 1022.9 0.0
28/05:00am 11.7 10.4 7.8 77 1.9 E 4 6 2 3 1022.8 1022.7 0.0
28/04:30am 11.6 9.9 7.5 76 2.0 ENE 6 9 3 5 1022.7 1022.6 0.0
28/04:00am 11.7 10.0 7.6 76 2.0 E 6 9 3 5 1022.7 1022.6 0.0
28/03:30am 11.7 10.1 7.8 77 1.9 ESE 6 11 3 6 1022.6 1022.5 0.0
28/03:00am 11.7 9.8 7.6 76 2.0 E 7 9 4 5 1022.7 1022.6 0.0
28/02:30am 11.6 9.7 7.5 76 2.0 ESE 7 11 4 6 1022.9 1022.8 0.0
28/02:00am 11.6 9.7 7.5 76 2.0 E 7 9 4 5 1023.1 1023.0 0.0
28/01:30am 11.7 9.8 7.6 76 2.0 SE 7 9 4 5 1023.4 1023.3 0.0
28/01:00am 11.6 8.9 7.3 75 2.1 SE 11 15 6 8 1023.5 1023.4 0.0
28/12:30am 11.8 8.8 7.7 76 2.0 SE 13 17 7 9 1023.9 1023.8 0.0
28/12:00am 11.9 8.5 7.8 76 2.0 SE 15 19 8 10 1024.0 1023.9 0.0
 
Date/Time
EDT
Temp
°C
App
Temp
°C
Dew
Point
Rel
Hum
%
Delta-T
°C
Wind Press
QNH
hPa
Press
MSL
hPa
Rain
since 9 am
mm
Dir
 
Spd
km/h
Gust
km/h
Spd
kts
Gust
kts
27/11:30pm 12.0 8.2 7.5 74 2.2 SE 17 22 9 12 1024.2 1024.1 0.0
27/11:00pm 12.1 8.3 7.6 74 2.2 SE 17 20 9 11 1024.3 1024.2 0.0
27/10:30pm 12.2 8.1 7.7 74 2.2 SE 19 26 10 14 1024.3 1024.2 0.0
27/10:00pm 12.2 8.0 8.1 76 2.0 SE 20 26 11 14 1024.3 1024.2 0.0
27/09:30pm 12.3 8.0 8.0 75 2.1 SE 20 26 11 14 1024.3 1024.2 0.0
27/09:00pm 12.5 8.3 8.2 75 2.1 SE 20 30 11 16 1024.2 1024.1 0.0
27/08:30pm 12.5 7.9 8.0 74 2.2 SE 22 28 12 15 1024.0 1023.9 0.0
27/08:00pm 12.7 8.4 8.0 73 2.3 SE 20 32 11 17 1024.1 1024.0 0.0
27/07:30pm 13.3 9.0 7.7 69 2.8 SE 20 28 11 15 1023.9 1023.8 0.0
27/07:00pm 14.7 10.7 8.4 66 3.2 SE 19 28 10 15 1023.8 1023.7 0.0
27/06:30pm 14.5 10.3 7.5 63 3.5 SE 19 32 10 17 1023.8 1023.7 0.0
27/06:00pm 15.4 10.7 7.7 60 3.8 SE 22 33 12 18 1023.3 1023.2 0.0
27/05:30pm 16.5 12.0 8.7 60 4.0 SE 22 30 12 16 1023.3 1023.2 0.0
27/05:00pm 17.2 13.1 8.6 57 4.4 ESE 20 26 11 14 1023.5 1023.4 0.0
27/04:30pm 18.7 14.7 9.2 54 5.0 ESE 20 28 11 15 1023.4 1023.3 0.0
27/04:00pm 18.6 14.0 8.3 51 5.3 ESE 22 30 12 16 1023.1 1023.0 0.0
27/03:30pm 19.0 14.6 8.9 52 5.3 ESE 22 30 12 16 1023.0 1022.9 0.0
27/03:00pm 19.1 13.8 6.6 44 6.2 SE 24 32 13 17 1022.8 1022.7 0.0
27/02:30pm 19.9 14.7 7.3 44 6.4 SE 24 35 13 19 1022.7 1022.6 0.0
27/02:00pm 19.3 14.0 6.8 44 6.3 SE 24 33 13 18 1022.6 1022.5 0.0
27/01:30pm 19.2 13.9 7.0 45 6.2 SE 24 32 13 17 1022.3 1022.2 0.0
27/01:00pm 19.1 13.8 6.6 44 6.2 SE 24 30 13 16 1022.2 1022.1 0.0
27/12:30pm 19.1 14.4 6.2 43 6.4 SE 20 28 11 15 1022.3 1022.2 0.0
27/12:00pm 18.5 13.8 6.0 44 6.1 SE 20 28 11 15 1022.5 1022.4 0.0
27/11:30am 18.0 14.3 4.6 41 6.4 SSE 13 20 7 11 1022.7 1022.6 0.0
27/11:00am 17.0 13.4 3.0 39 6.4 SW 11 20 6 11 1022.9 1022.8 0.0
27/10:30am 16.6 12.3 3.0 40 6.2 S 15 24 8 13 1023.0 1022.9 0.0
27/10:00am 15.9 12.4 3.4 43 5.7 SW 11 24 6 13 1023.0 1022.9 0.0
27/09:30am 15.0 10.6 2.9 44 5.5 SW 15 30 8 16 1023.2 1023.1 0.0
27/09:00am 14.2 8.9 3.1 47 5.0 WSW 20 41 11 22 1023.1 1023.0 0.0
27/08:30am 13.6 8.9 3.1 49 4.7 WSW 17 28 9 15 1023.1 1023.0 0.0
27/08:00am 12.6 7.9 3.0 52 4.2 WSW 17 32 9 17 1022.9 1022.8 0.0
27/07:30am 11.6 7.2 2.6 54 3.9 WSW 15 26 8 14 1022.8 1022.7 0.0
27/07:00am 11.0 7.0 2.8 57 3.5 WSW 13 22 7 12 1022.6 1022.5 0.0
27/06:30am 9.7 6.5 3.0 63 2.9 W 9 20 5 11 1022.3 1022.2 0.0
27/06:00am 8.6 5.3 2.4 65 2.6 W 9 15 5 8 1022.2 1022.1 0.0
27/05:30am 8.2 5.5 2.4 67 2.4 W 6 11 3 6 1022.0 1021.9 0.0
27/05:00am 8.3 4.9 1.9 64 2.6 W 9 17 5 9 1021.6 1021.5 0.0
27/04:30am 8.4 5.4 1.8 63 2.7 W 7 9 4 5 1021.3 1021.2 0.0
27/04:00am 9.1 5.8 2.2 62 2.9 W 9 15 5 8 1021.1 1021.0 0.0
27/03:30am 9.3 5.9 1.9 60 3.1 W 9 20 5 11 1020.8 1020.7 0.0
27/03:00am 9.8 6.1 2.4 60 3.1 W 11 22 6 12 1020.9 1020.8 0.0
27/02:30am 9.8 6.5 2.6 61 3.1 W 9 17 5 9 1021.0 1020.9 0.0
27/02:00am 9.8 6.1 2.4 60 3.1 WSW 11 22 6 12 1020.8 1020.7 0.0
27/01:30am 10.4 6.0 2.5 58 3.4 WSW 15 30 8 16 1020.7 1020.6 0.0
27/01:00am 10.9 5.8 3.0 58 3.4 WSW 19 30 10 16 1020.7 1020.6 0.0
27/12:30am 10.7 6.3 2.8 58 3.4 WSW 15 26 8 14 1020.8 1020.7 0.0
27/12:00am 10.7 7.1 2.8 58 3.4 WSW 11 22 6 12 1020.7 1020.6 0.0
 
Date/Time
EDT
Temp
°C
App
Temp
°C
Dew
Point
Rel
Hum
%
Delta-T
°C
Wind Press
QNH
hPa
Press
MSL
hPa
Rain
since 9 am
mm
Dir
 
Spd
km/h
Gust
km/h
Spd
kts
Gust
kts
26/11:30pm 10.9 8.1 3.2 59 3.4 WSW 7 11 4 6 1020.5 1020.4 0.0
26/11:00pm 11.7 7.7 3.0 55 3.8 WSW 13 19 7 10 1020.3 1020.2 0.0
26/10:30pm 12.5 7.8 3.2 53 4.1 WSW 17 30 9 16 1020.2 1020.1 0.0
26/10:00pm 12.8 8.9 3.2 52 4.3 W 13 26 7 14 1020.0 1019.9 0.0
26/09:30pm 11.8 9.3 4.5 61 3.3 W 7 17 4 9 1019.5 1019.5 0.0
26/09:00pm 11.9 10.1 7.2 73 2.3 NW 6 9 3 5 1018.9 1018.9 0.0
26/08:30pm 12.4 10.6 7.1 70 2.6 N 6 13 3 7 1018.5 1018.5 0.0
26/08:00pm 13.6 11.4 6.2 61 3.5 SW 7 17 4 9 1018.1 1018.1 0.0
26/07:30pm 14.6 12.6 6.9 60 3.8 S 7 13 4 7 1017.6 1017.6 0.0
26/07:00pm 15.8 13.4 7.1 56 4.3 S 9 15 5 8 1017.2 1017.2 0.0
26/06:30pm 16.3 13.2 9.0 62 3.8 SE 15 20 8 11 1016.8 1016.8 0.0
26/06:00pm 16.2 12.0 8.4 60 4.0 SE 20 28 11 15 1016.2 1016.2 0.0
26/05:30pm 16.8 12.5 9.5 62 3.8 SE 22 30 12 16 1016.1 1016.1 0.0
26/05:00pm 14.9 9.5 7.9 63 3.5 SE 26 37 14 20 1015.9 1015.9 0.0
26/04:30pm 16.0 10.6 8.0 59 4.0 SE 26 37 14 20 1015.6 1015.6 0.0
26/04:00pm 16.3 10.1 7.8 57 4.3 SE 30 37 16 20 1015.3 1015.3 0.0
26/03:30pm 17.4 12.0 8.0 54 4.8 SE 26 35 14 19 1015.0 1015.0 0.0
26/03:00pm 18.2 14.5 9.5 57 4.6 SE 19 24 10 13 1014.9 1014.9 0.0
26/02:30pm 18.4 13.3 9.2 55 4.8 SE 26 33 14 18 1014.8 1014.8 0.0
26/02:00pm 18.8 13.8 4.6 39 6.8 SSE 20 28 11 15 1014.5 1014.5 0.0
26/01:30pm 20.7 15.9 4.7 35 7.8 S 19 28 10 15 1014.3 1014.3 0.0

Other Formats:

Comma delimited format used in spreadsheet applications
http://www.bom.gov.au/fwo/IDT60801/IDT60801.94987.axf

JavaScript Object Notation format (JSON) in row-major order
http://www.bom.gov.au/fwo/IDT60801/IDT60801.94987.json